sensor_id;sensor_type;location;lat;lon;timestamp;temperature;humidity
4564;DHT22;2294;51.818;8.484;2022-11-13T00:01:08;5.20;99.90
4564;DHT22;2294;51.818;8.484;2022-11-13T00:03:35;5.20;99.90
4564;DHT22;2294;51.818;8.484;2022-11-13T00:06:02;5.10;99.90
4564;DHT22;2294;51.818;8.484;2022-11-13T00:08:29;5.10;99.90
4564;DHT22;2294;51.818;8.484;2022-11-13T00:11:01;5.10;99.90
4564;DHT22;2294;51.818;8.484;2022-11-13T00:13:29;5.10;99.90
4564;DHT22;2294;51.818;8.484;2022-11-13T00:15:57;5.10;99.90
4564;DHT22;2294;51.818;8.484;2022-11-13T00:18:24;5.10;99.90
4564;DHT22;2294;51.818;8.484;2022-11-13T00:20:51;5.10;99.90
4564;DHT22;2294;51.818;8.484;2022-11-13T00:23:18;5.10;99.90
4564;DHT22;2294;51.818;8.484;2022-11-13T00:25:44;5.20;99.90
4564;DHT22;2294;51.818;8.484;2022-11-13T00:28:13;5.10;99.90
4564;DHT22;2294;51.818;8.484;2022-11-13T00:30:40;5.00;99.90
4564;DHT22;2294;51.818;8.484;2022-11-13T00:33:07;5.00;99.90
4564;DHT22;2294;51.818;8.484;2022-11-13T00:35:33;5.00;99.90
4564;DHT22;2294;51.818;8.484;2022-11-13T00:38:00;4.90;99.90
4564;DHT22;2294;51.818;8.484;2022-11-13T00:40:27;4.90;99.90
4564;DHT22;2294;51.818;8.484;2022-11-13T00:42:54;4.90;99.90
4564;DHT22;2294;51.818;8.484;2022-11-13T00:45:22;5.00;99.90
4564;DHT22;2294;51.818;8.484;2022-11-13T00:47:49;4.90;99.90
4564;DHT22;2294;51.818;8.484;2022-11-13T00:50:16;5.00;99.90
4564;DHT22;2294;51.818;8.484;2022-11-13T00:52:43;5.00;99.90
4564;DHT22;2294;51.818;8.484;2022-11-13T00:55:10;5.00;99.90
4564;DHT22;2294;51.818;8.484;2022-11-13T00:57:37;5.00;99.90
4564;DHT22;2294;51.818;8.484;2022-11-13T01:00:05;5.00;99.90
4564;DHT22;2294;51.818;8.484;2022-11-13T01:02:33;5.00;99.90
4564;DHT22;2294;51.818;8.484;2022-11-13T01:05:00;5.00;99.90
4564;DHT22;2294;51.818;8.484;2022-11-13T01:07:27;5.00;99.90
4564;DHT22;2294;51.818;8.484;2022-11-13T01:09:54;5.10;99.90
4564;DHT22;2294;51.818;8.484;2022-11-13T01:12:21;5.10;99.90
4564;DHT22;2294;51.818;8.484;2022-11-13T01:14:48;5.10;99.90
4564;DHT22;2294;51.818;8.484;2022-11-13T01:17:15;5.00;99.90
4564;DHT22;2294;51.818;8.484;2022-11-13T01:19:43;5.00;99.90
4564;DHT22;2294;51.818;8.484;2022-11-13T01:22:10;5.00;99.90
4564;DHT22;2294;51.818;8.484;2022-11-13T01:24:37;5.10;99.90
4564;DHT22;2294;51.818;8.484;2022-11-13T01:27:04;5.10;99.90
4564;DHT22;2294;51.818;8.484;2022-11-13T01:29:32;5.10;99.90
4564;DHT22;2294;51.818;8.484;2022-11-13T01:31:59;5.20;99.90
4564;DHT22;2294;51.818;8.484;2022-11-13T01:34:26;5.20;99.90
4564;DHT22;2294;51.818;8.484;2022-11-13T01:36:54;5.10;99.90
4564;DHT22;2294;51.818;8.484;2022-11-13T01:39:21;5.10;99.90
4564;DHT22;2294;51.818;8.484;2022-11-13T01:41:48;5.10;99.90
4564;DHT22;2294;51.818;8.484;2022-11-13T01:44:16;5.10;99.90
4564;DHT22;2294;51.818;8.484;2022-11-13T01:46:46;5.10;99.90
4564;DHT22;2294;51.818;8.484;2022-11-13T01:49:25;5.10;99.90
4564;DHT22;2294;51.818;8.484;2022-11-13T01:51:56;5.10;99.90
4564;DHT22;2294;51.818;8.484;2022-11-13T01:54:26;5.10;99.90
4564;DHT22;2294;51.818;8.484;2022-11-13T01:56:56;5.10;99.90
4564;DHT22;2294;51.818;8.484;2022-11-13T01:59:26;5.10;99.90
4564;DHT22;2294;51.818;8.484;2022-11-13T02:01:55;5.10;99.90
4564;DHT22;2294;51.818;8.484;2022-11-13T02:04:22;5.20;99.90
4564;DHT22;2294;51.818;8.484;2022-11-13T02:06:52;5.30;99.90
4564;DHT22;2294;51.818;8.484;2022-11-13T02:09:23;5.30;99.90
4564;DHT22;2294;51.818;8.484;2022-11-13T02:11:53;5.20;99.90
4564;DHT22;2294;51.818;8.484;2022-11-13T02:14:21;5.30;99.90
4564;DHT22;2294;51.818;8.484;2022-11-13T02:16:51;5.20;99.90
4564;DHT22;2294;51.818;8.484;2022-11-13T02:19:30;5.20;99.90
4564;DHT22;2294;51.818;8.484;2022-11-13T02:22:03;5.20;99.90
4564;DHT22;2294;51.818;8.484;2022-11-13T02:24:38;5.20;99.90
4564;DHT22;2294;51.818;8.484;2022-11-13T02:27:09;5.30;99.90
4564;DHT22;2294;51.818;8.484;2022-11-13T02:29:37;5.40;99.90
4564;DHT22;2294;51.818;8.484;2022-11-13T02:32:04;5.40;99.90
4564;DHT22;2294;51.818;8.484;2022-11-13T02:34:31;5.40;99.90
4564;DHT22;2294;51.818;8.484;2022-11-13T02:36:58;5.50;99.90
4564;DHT22;2294;51.818;8.484;2022-11-13T02:39:25;5.50;99.90
4564;DHT22;2294;51.818;8.484;2022-11-13T02:41:53;5.50;99.90
4564;DHT22;2294;51.818;8.484;2022-11-13T02:44:20;5.50;99.90
4564;DHT22;2294;51.818;8.484;2022-11-13T02:46:47;5.50;99.90
4564;DHT22;2294;51.818;8.484;2022-11-13T02:49:13;5.40;99.90
4564;DHT22;2294;51.818;8.484;2022-11-13T02:51:40;5.40;99.90
4564;DHT22;2294;51.818;8.484;2022-11-13T02:54:07;5.30;99.90
4564;DHT22;2294;51.818;8.484;2022-11-13T02:56:34;5.30;99.90
4564;DHT22;2294;51.818;8.484;2022-11-13T02:59:02;5.30;99.90
4564;DHT22;2294;51.818;8.484;2022-11-13T03:01:29;5.30;99.90
4564;DHT22;2294;51.818;8.484;2022-11-13T03:03:56;5.10;99.90
4564;DHT22;2294;51.818;8.484;2022-11-13T03:06:23;5.10;99.90
4564;DHT22;2294;51.818;8.484;2022-11-13T03:08:50;5.10;99.90
4564;DHT22;2294;51.818;8.484;2022-11-13T03:11:17;5.10;99.90
4564;DHT22;2294;51.818;8.484;2022-11-13T03:13:44;5.00;99.90
4564;DHT22;2294;51.818;8.484;2022-11-13T03:16:14;4.90;99.90
4564;DHT22;2294;51.818;8.484;2022-11-13T03:18:42;4.80;99.90
4564;DHT22;2294;51.818;8.484;2022-11-13T03:21:11;4.80;99.90
4564;DHT22;2294;51.818;8.484;2022-11-13T03:23:39;4.80;99.90
4564;DHT22;2294;51.818;8.484;2022-11-13T03:26:08;4.70;99.90
4564;DHT22;2294;51.818;8.484;2022-11-13T03:28:35;4.60;99.90
4564;DHT22;2294;51.818;8.484;2022-11-13T03:31:03;4.60;99.90
4564;DHT22;2294;51.818;8.484;2022-11-13T03:33:31;4.50;99.90
4564;DHT22;2294;51.818;8.484;2022-11-13T03:35:58;4.50;99.90
4564;DHT22;2294;51.818;8.484;2022-11-13T03:38:25;4.50;99.90
4564;DHT22;2294;51.818;8.484;2022-11-13T03:40:52;4.50;99.90
4564;DHT22;2294;51.818;8.484;2022-11-13T03:43:20;4.50;99.90
4564;DHT22;2294;51.818;8.484;2022-11-13T03:45:47;4.50;99.90
4564;DHT22;2294;51.818;8.484;2022-11-13T03:48:15;4.50;99.90
4564;DHT22;2294;51.818;8.484;2022-11-13T03:50:45;4.40;99.90
4564;DHT22;2294;51.818;8.484;2022-11-13T03:53:13;4.30;99.90
4564;DHT22;2294;51.818;8.484;2022-11-13T03:55:40;4.30;99.90
4564;DHT22;2294;51.818;8.484;2022-11-13T03:58:07;4.20;99.90
4564;DHT22;2294;51.818;8.484;2022-11-13T04:00:35;4.20;99.90
4564;DHT22;2294;51.818;8.484;2022-11-13T04:03:02;4.20;99.90
4564;DHT22;2294;51.818;8.484;2022-11-13T04:05:29;4.20;99.90
4564;DHT22;2294;51.818;8.484;2022-11-13T04:07:58;4.20;99.90
4564;DHT22;2294;51.818;8.484;2022-11-13T04:10:25;4.10;99.90
4564;DHT22;2294;51.818;8.484;2022-11-13T04:12:52;4.10;99.90
4564;DHT22;2294;51.818;8.484;2022-11-13T04:15:19;4.00;99.90
4564;DHT22;2294;51.818;8.484;2022-11-13T04:17:47;4.00;99.90
4564;DHT22;2294;51.818;8.484;2022-11-13T04:20:14;4.00;99.90
4564;DHT22;2294;51.818;8.484;2022-11-13T04:22:41;3.90;99.90
4564;DHT22;2294;51.818;8.484;2022-11-13T04:25:10;4.00;99.90
4564;DHT22;2294;51.818;8.484;2022-11-13T04:27:36;3.90;99.90
4564;DHT22;2294;51.818;8.484;2022-11-13T04:30:04;3.90;99.90
4564;DHT22;2294;51.818;8.484;2022-11-13T04:32:32;4.00;99.90
4564;DHT22;2294;51.818;8.484;2022-11-13T04:34:58;4.00;99.90
4564;DHT22;2294;51.818;8.484;2022-11-13T04:37:25;4.00;99.90
4564;DHT22;2294;51.818;8.484;2022-11-13T04:39:52;3.90;99.90
4564;DHT22;2294;51.818;8.484;2022-11-13T04:42:20;4.00;99.90
4564;DHT22;2294;51.818;8.484;2022-11-13T04:45:21;3.90;99.90
4564;DHT22;2294;51.818;8.484;2022-11-13T04:47:50;4.00;99.90
4564;DHT22;2294;51.818;8.484;2022-11-13T04:50:17;3.90;99.90
4564;DHT22;2294;51.818;8.484;2022-11-13T04:52:44;3.90;99.90
4564;DHT22;2294;51.818;8.484;2022-11-13T04:55:11;3.90;99.90
4564;DHT22;2294;51.818;8.484;2022-11-13T04:57:40;4.00;99.90
4564;DHT22;2294;51.818;8.484;2022-11-13T05:00:08;4.00;99.90
4564;DHT22;2294;51.818;8.484;2022-11-13T05:02:35;4.00;99.90
4564;DHT22;2294;51.818;8.484;2022-11-13T05:05:03;4.00;99.90
4564;DHT22;2294;51.818;8.484;2022-11-13T05:07:30;4.00;99.90
4564;DHT22;2294;51.818;8.484;2022-11-13T05:09:56;4.00;99.90
4564;DHT22;2294;51.818;8.484;2022-11-13T05:12:23;4.10;99.90
4564;DHT22;2294;51.818;8.484;2022-11-13T05:14:51;4.00;99.90
4564;DHT22;2294;51.818;8.484;2022-11-13T05:17:18;4.00;99.90
4564;DHT22;2294;51.818;8.484;2022-11-13T05:19:45;4.00;99.90
4564;DHT22;2294;51.818;8.484;2022-11-13T05:22:12;4.00;99.90
4564;DHT22;2294;51.818;8.484;2022-11-13T05:24:39;3.90;99.90
4564;DHT22;2294;51.818;8.484;2022-11-13T05:27:06;4.00;99.90
4564;DHT22;2294;51.818;8.484;2022-11-13T05:29:33;4.10;99.90
4564;DHT22;2294;51.818;8.484;2022-11-13T05:32:01;4.10;99.90
4564;DHT22;2294;51.818;8.484;2022-11-13T05:34:28;4.00;99.90
4564;DHT22;2294;51.818;8.484;2022-11-13T05:36:54;4.10;99.90
4564;DHT22;2294;51.818;8.484;2022-11-13T05:39:21;4.10;99.90
4564;DHT22;2294;51.818;8.484;2022-11-13T05:41:48;4.00;99.90
4564;DHT22;2294;51.818;8.484;2022-11-13T05:44:15;4.00;99.90
4564;DHT22;2294;51.818;8.484;2022-11-13T05:46:42;4.00;99.90
4564;DHT22;2294;51.818;8.484;2022-11-13T05:49:10;4.00;99.90
4564;DHT22;2294;51.818;8.484;2022-11-13T05:51:37;4.10;99.90
4564;DHT22;2294;51.818;8.484;2022-11-13T05:54:04;4.10;99.90
4564;DHT22;2294;51.818;8.484;2022-11-13T05:56:33;4.30;99.90
4564;DHT22;2294;51.818;8.484;2022-11-13T05:59:01;4.30;99.90
4564;DHT22;2294;51.818;8.484;2022-11-13T06:01:29;4.50;99.90
4564;DHT22;2294;51.818;8.484;2022-11-13T06:03:58;4.60;99.90
4564;DHT22;2294;51.818;8.484;2022-11-13T06:06:27;4.60;99.90
4564;DHT22;2294;51.818;8.484;2022-11-13T06:08:55;4.70;99.90
4564;DHT22;2294;51.818;8.484;2022-11-13T06:11:24;4.70;99.90
4564;DHT22;2294;51.818;8.484;2022-11-13T06:13:52;4.80;99.90
4564;DHT22;2294;51.818;8.484;2022-11-13T06:16:21;4.80;99.90
4564;DHT22;2294;51.818;8.484;2022-11-13T06:18:49;4.80;99.90
4564;DHT22;2294;51.818;8.484;2022-11-13T06:21:18;4.80;99.90
4564;DHT22;2294;51.818;8.484;2022-11-13T06:23:47;4.90;99.90
4564;DHT22;2294;51.818;8.484;2022-11-13T06:26:16;4.90;99.90
4564;DHT22;2294;51.818;8.484;2022-11-13T06:28:43;4.90;99.90
4564;DHT22;2294;51.818;8.484;2022-11-13T06:31:13;4.90;99.90
4564;DHT22;2294;51.818;8.484;2022-11-13T06:33:41;5.10;99.90
4564;DHT22;2294;51.818;8.484;2022-11-13T06:36:10;5.10;99.90
4564;DHT22;2294;51.818;8.484;2022-11-13T06:38:38;5.10;99.90
4564;DHT22;2294;51.818;8.484;2022-11-13T06:41:08;5.10;99.90
4564;DHT22;2294;51.818;8.484;2022-11-13T06:43:35;5.20;99.90
4564;DHT22;2294;51.818;8.484;2022-11-13T06:46:03;5.10;99.90
4564;DHT22;2294;51.818;8.484;2022-11-13T06:48:31;5.30;99.90
4564;DHT22;2294;51.818;8.484;2022-11-13T06:51:00;5.20;99.90
4564;DHT22;2294;51.818;8.484;2022-11-13T06:53:28;5.00;99.90
4564;DHT22;2294;51.818;8.484;2022-11-13T06:55:55;4.90;99.90
4564;DHT22;2294;51.818;8.484;2022-11-13T06:58:23;4.90;99.90
4564;DHT22;2294;51.818;8.484;2022-11-13T07:00:50;4.90;99.90
4564;DHT22;2294;51.818;8.484;2022-11-13T07:03:18;4.90;99.90
4564;DHT22;2294;51.818;8.484;2022-11-13T07:05:46;4.90;99.90
4564;DHT22;2294;51.818;8.484;2022-11-13T07:08:13;4.90;99.90
4564;DHT22;2294;51.818;8.484;2022-11-13T07:10:41;4.90;99.90
4564;DHT22;2294;51.818;8.484;2022-11-13T07:13:08;4.70;99.90
4564;DHT22;2294;51.818;8.484;2022-11-13T07:15:38;4.70;99.90
4564;DHT22;2294;51.818;8.484;2022-11-13T07:18:06;4.70;99.90
4564;DHT22;2294;51.818;8.484;2022-11-13T07:20:33;4.70;99.90
4564;DHT22;2294;51.818;8.484;2022-11-13T07:23:01;4.80;99.90
4564;DHT22;2294;51.818;8.484;2022-11-13T07:25:30;4.80;99.90
4564;DHT22;2294;51.818;8.484;2022-11-13T07:27:57;4.90;99.90
4564;DHT22;2294;51.818;8.484;2022-11-13T07:30:24;4.80;99.90
4564;DHT22;2294;51.818;8.484;2022-11-13T07:32:52;4.80;99.90
4564;DHT22;2294;51.818;8.484;2022-11-13T07:35:19;4.90;99.90
4564;DHT22;2294;51.818;8.484;2022-11-13T07:37:46;4.90;99.90
4564;DHT22;2294;51.818;8.484;2022-11-13T07:40:13;4.80;99.90
4564;DHT22;2294;51.818;8.484;2022-11-13T07:42:39;4.90;99.90
4564;DHT22;2294;51.818;8.484;2022-11-13T07:45:07;4.90;99.90
4564;DHT22;2294;51.818;8.484;2022-11-13T07:47:34;5.00;99.90
4564;DHT22;2294;51.818;8.484;2022-11-13T07:50:03;5.00;99.90
4564;DHT22;2294;51.818;8.484;2022-11-13T07:52:30;5.10;99.90
4564;DHT22;2294;51.818;8.484;2022-11-13T07:54:57;5.20;99.90
4564;DHT22;2294;51.818;8.484;2022-11-13T07:57:23;5.30;99.90
4564;DHT22;2294;51.818;8.484;2022-11-13T07:59:51;5.40;99.90
4564;DHT22;2294;51.818;8.484;2022-11-13T08:02:18;5.50;99.90
4564;DHT22;2294;51.818;8.484;2022-11-13T08:04:45;5.50;99.90
4564;DHT22;2294;51.818;8.484;2022-11-13T08:07:13;5.60;99.90
4564;DHT22;2294;51.818;8.484;2022-11-13T08:09:40;5.70;99.90
4564;DHT22;2294;51.818;8.484;2022-11-13T08:12:07;5.80;99.90
4564;DHT22;2294;51.818;8.484;2022-11-13T08:14:34;5.80;99.90
4564;DHT22;2294;51.818;8.484;2022-11-13T08:17:01;5.90;99.90
4564;DHT22;2294;51.818;8.484;2022-11-13T08:19:28;6.00;99.90
4564;DHT22;2294;51.818;8.484;2022-11-13T08:21:55;6.20;99.90
4564;DHT22;2294;51.818;8.484;2022-11-13T08:24:23;6.50;99.90
4564;DHT22;2294;51.818;8.484;2022-11-13T08:26:50;6.70;99.90
4564;DHT22;2294;51.818;8.484;2022-11-13T08:29:17;6.90;99.90
4564;DHT22;2294;51.818;8.484;2022-11-13T08:31:43;7.00;99.90
4564;DHT22;2294;51.818;8.484;2022-11-13T08:34:10;7.40;99.90
4564;DHT22;2294;51.818;8.484;2022-11-13T08:36:37;7.80;99.90
4564;DHT22;2294;51.818;8.484;2022-11-13T08:39:04;8.00;99.90
4564;DHT22;2294;51.818;8.484;2022-11-13T08:41:32;8.10;99.90
4564;DHT22;2294;51.818;8.484;2022-11-13T08:43:59;7.90;99.90
4564;DHT22;2294;51.818;8.484;2022-11-13T08:46:26;7.90;99.90
4564;DHT22;2294;51.818;8.484;2022-11-13T08:48:53;8.10;99.90
4564;DHT22;2294;51.818;8.484;2022-11-13T08:51:20;8.20;99.90
4564;DHT22;2294;51.818;8.484;2022-11-13T08:53:47;8.10;99.90
4564;DHT22;2294;51.818;8.484;2022-11-13T08:56:14;8.30;99.90
4564;DHT22;2294;51.818;8.484;2022-11-13T08:58:42;8.60;99.90
4564;DHT22;2294;51.818;8.484;2022-11-13T09:01:09;8.80;99.90
4564;DHT22;2294;51.818;8.484;2022-11-13T09:03:36;8.90;99.90
4564;DHT22;2294;51.818;8.484;2022-11-13T09:06:04;9.20;99.90
4564;DHT22;2294;51.818;8.484;2022-11-13T09:08:31;9.20;99.90
4564;DHT22;2294;51.818;8.484;2022-11-13T09:11:02;9.20;99.90
4564;DHT22;2294;51.818;8.484;2022-11-13T09:13:29;9.20;99.90
4564;DHT22;2294;51.818;8.484;2022-11-13T09:15:58;9.40;99.90
4564;DHT22;2294;51.818;8.484;2022-11-13T09:18:25;9.60;99.90
4564;DHT22;2294;51.818;8.484;2022-11-13T09:20:52;9.60;99.90
4564;DHT22;2294;51.818;8.484;2022-11-13T09:23:19;9.60;99.90
4564;DHT22;2294;51.818;8.484;2022-11-13T09:25:46;9.80;99.90
4564;DHT22;2294;51.818;8.484;2022-11-13T09:28:13;9.90;99.90
4564;DHT22;2294;51.818;8.484;2022-11-13T09:30:40;10.20;99.90
4564;DHT22;2294;51.818;8.484;2022-11-13T09:33:10;10.30;99.90
4564;DHT22;2294;51.818;8.484;2022-11-13T09:35:40;10.50;99.90
4564;DHT22;2294;51.818;8.484;2022-11-13T09:38:09;10.50;99.90
4564;DHT22;2294;51.818;8.484;2022-11-13T09:40:40;10.70;99.90
4564;DHT22;2294;51.818;8.484;2022-11-13T09:43:19;10.90;99.90
4564;DHT22;2294;51.818;8.484;2022-11-13T09:45:48;10.90;99.90
4564;DHT22;2294;51.818;8.484;2022-11-13T09:48:24;10.90;99.90
4564;DHT22;2294;51.818;8.484;2022-11-13T09:50:52;11.00;99.90
4564;DHT22;2294;51.818;8.484;2022-11-13T09:53:19;11.00;99.90
4564;DHT22;2294;51.818;8.484;2022-11-13T09:55:54;11.10;99.90
4564;DHT22;2294;51.818;8.484;2022-11-13T09:58:27;11.20;99.90
4564;DHT22;2294;51.818;8.484;2022-11-13T10:00:57;11.40;99.90
4564;DHT22;2294;51.818;8.484;2022-11-13T10:03:34;11.50;99.90
4564;DHT22;2294;51.818;8.484;2022-11-13T10:06:09;11.60;99.90
4564;DHT22;2294;51.818;8.484;2022-11-13T10:08:46;11.90;99.90
4564;DHT22;2294;51.818;8.484;2022-11-13T10:11:20;12.00;99.90
4564;DHT22;2294;51.818;8.484;2022-11-13T10:13:51;12.10;99.90
4564;DHT22;2294;51.818;8.484;2022-11-13T10:16:26;12.30;99.90
4564;DHT22;2294;51.818;8.484;2022-11-13T10:19:03;12.30;99.90
4564;DHT22;2294;51.818;8.484;2022-11-13T10:21:34;12.40;99.90
4564;DHT22;2294;51.818;8.484;2022-11-13T10:24:09;12.60;99.90
4564;DHT22;2294;51.818;8.484;2022-11-13T10:26:40;12.80;99.90
4564;DHT22;2294;51.818;8.484;2022-11-13T10:29:11;12.80;99.90
4564;DHT22;2294;51.818;8.484;2022-11-13T10:31:45;12.90;99.90
4564;DHT22;2294;51.818;8.484;2022-11-13T10:34:14;13.00;99.90
4564;DHT22;2294;51.818;8.484;2022-11-13T10:36:53;13.20;99.90
4564;DHT22;2294;51.818;8.484;2022-11-13T10:39:23;13.20;99.90
4564;DHT22;2294;51.818;8.484;2022-11-13T10:41:51;13.10;99.90
4564;DHT22;2294;51.818;8.484;2022-11-13T10:44:20;13.10;99.90
4564;DHT22;2294;51.818;8.484;2022-11-13T10:46:47;13.10;99.90
4564;DHT22;2294;51.818;8.484;2022-11-13T10:49:19;13.20;99.90
4564;DHT22;2294;51.818;8.484;2022-11-13T10:51:54;13.40;99.90
4564;DHT22;2294;51.818;8.484;2022-11-13T10:54:23;13.50;99.90
4564;DHT22;2294;51.818;8.484;2022-11-13T10:56:58;13.90;99.90
4564;DHT22;2294;51.818;8.484;2022-11-13T10:59:26;13.70;99.90
4564;DHT22;2294;51.818;8.484;2022-11-13T11:02:14;13.80;99.90
4564;DHT22;2294;51.818;8.484;2022-11-13T11:04:43;13.80;99.90
4564;DHT22;2294;51.818;8.484;2022-11-13T11:07:13;13.90;99.90
4564;DHT22;2294;51.818;8.484;2022-11-13T11:09:41;14.20;99.90
4564;DHT22;2294;51.818;8.484;2022-11-13T11:12:13;14.20;99.90
4564;DHT22;2294;51.818;8.484;2022-11-13T11:14:58;14.20;99.90
4564;DHT22;2294;51.818;8.484;2022-11-13T11:17:32;14.30;99.90
4564;DHT22;2294;51.818;8.484;2022-11-13T11:20:05;14.40;99.90
4564;DHT22;2294;51.818;8.484;2022-11-13T11:22:35;14.70;99.90
4564;DHT22;2294;51.818;8.484;2022-11-13T11:25:08;14.60;99.90
4564;DHT22;2294;51.818;8.484;2022-11-13T11:27:40;14.70;99.90
4564;DHT22;2294;51.818;8.484;2022-11-13T11:30:17;14.90;99.90
4564;DHT22;2294;51.818;8.484;2022-11-13T11:32:48;14.90;99.90
4564;DHT22;2294;51.818;8.484;2022-11-13T11:35:20;15.20;99.90
4564;DHT22;2294;51.818;8.484;2022-11-13T11:37:53;15.20;99.90
4564;DHT22;2294;51.818;8.484;2022-11-13T11:40:26;15.20;99.90
4564;DHT22;2294;51.818;8.484;2022-11-13T11:43:02;15.40;99.90
4564;DHT22;2294;51.818;8.484;2022-11-13T11:45:35;15.50;99.90
4564;DHT22;2294;51.818;8.484;2022-11-13T11:48:05;15.60;99.90
4564;DHT22;2294;51.818;8.484;2022-11-13T11:50:41;15.60;99.90
4564;DHT22;2294;51.818;8.484;2022-11-13T11:53:13;15.90;99.90
4564;DHT22;2294;51.818;8.484;2022-11-13T11:56:00;15.80;99.90
4564;DHT22;2294;51.818;8.484;2022-11-13T11:58:44;15.80;99.90
4564;DHT22;2294;51.818;8.484;2022-11-13T12:01:22;15.70;99.90
4564;DHT22;2294;51.818;8.484;2022-11-13T12:04:13;15.90;99.90
4564;DHT22;2294;51.818;8.484;2022-11-13T12:06:53;15.80;99.90
4564;DHT22;2294;51.818;8.484;2022-11-13T12:09:32;15.90;99.90
4564;DHT22;2294;51.818;8.484;2022-11-13T12:12:17;15.80;99.90
4564;DHT22;2294;51.818;8.484;2022-11-13T12:14:55;15.90;99.90
4564;DHT22;2294;51.818;8.484;2022-11-13T12:17:40;16.10;99.90
4564;DHT22;2294;51.818;8.484;2022-11-13T12:20:20;15.90;99.90
4564;DHT22;2294;51.818;8.484;2022-11-13T12:22:56;16.00;99.90
4564;DHT22;2294;51.818;8.484;2022-11-13T12:25:31;16.00;99.90
4564;DHT22;2294;51.818;8.484;2022-11-13T12:28:05;16.10;99.90
4564;DHT22;2294;51.818;8.484;2022-11-13T12:30:43;16.00;99.90
4564;DHT22;2294;51.818;8.484;2022-11-13T12:33:22;16.10;99.90
4564;DHT22;2294;51.818;8.484;2022-11-13T12:35:52;16.20;99.90
4564;DHT22;2294;51.818;8.484;2022-11-13T12:38:33;15.90;99.90
4564;DHT22;2294;51.818;8.484;2022-11-13T12:41:10;16.00;99.90
4564;DHT22;2294;51.818;8.484;2022-11-13T12:43:56;16.20;99.90
4564;DHT22;2294;51.818;8.484;2022-11-13T12:46:34;16.20;99.90
4564;DHT22;2294;51.818;8.484;2022-11-13T12:49:14;16.50;99.90
4564;DHT22;2294;51.818;8.484;2022-11-13T12:51:53;16.80;99.90
4564;DHT22;2294;51.818;8.484;2022-11-13T12:54:26;17.00;99.90
4564;DHT22;2294;51.818;8.484;2022-11-13T12:57:15;16.90;99.90
4564;DHT22;2294;51.818;8.484;2022-11-13T12:59:45;17.00;99.90
4564;DHT22;2294;51.818;8.484;2022-11-13T13:02:37;16.60;99.90
4564;DHT22;2294;51.818;8.484;2022-11-13T13:05:15;16.60;99.90
4564;DHT22;2294;51.818;8.484;2022-11-13T13:10:51;16.40;99.90
4564;DHT22;2294;51.818;8.484;2022-11-13T13:13:26;16.10;99.90
4564;DHT22;2294;51.818;8.484;2022-11-13T13:15:57;15.70;99.90
4564;DHT22;2294;51.818;8.484;2022-11-13T13:18:28;15.50;99.90
4564;DHT22;2294;51.818;8.484;2022-11-13T13:21:02;15.50;99.90
4564;DHT22;2294;51.818;8.484;2022-11-13T13:23:32;15.40;99.90
4564;DHT22;2294;51.818;8.484;2022-11-13T13:26:12;15.40;99.90
4564;DHT22;2294;51.818;8.484;2022-11-13T13:28:43;15.20;99.90
4564;DHT22;2294;51.818;8.484;2022-11-13T13:31:23;15.30;99.90
4564;DHT22;2294;51.818;8.484;2022-11-13T13:33:59;15.40;99.90
4564;DHT22;2294;51.818;8.484;2022-11-13T13:36:36;15.40;99.90
4564;DHT22;2294;51.818;8.484;2022-11-13T13:39:19;15.30;99.90
4564;DHT22;2294;51.818;8.484;2022-11-13T13:42:02;15.20;99.90
4564;DHT22;2294;51.818;8.484;2022-11-13T13:44:46;15.00;99.90
4564;DHT22;2294;51.818;8.484;2022-11-13T13:47:21;14.80;99.90
4564;DHT22;2294;51.818;8.484;2022-11-13T13:49:50;14.90;99.90
4564;DHT22;2294;51.818;8.484;2022-11-13T13:52:22;14.80;99.90
4564;DHT22;2294;51.818;8.484;2022-11-13T13:54:50;14.70;99.90
4564;DHT22;2294;51.818;8.484;2022-11-13T13:57:19;14.90;99.90
4564;DHT22;2294;51.818;8.484;2022-11-13T13:59:46;14.80;99.90
4564;DHT22;2294;51.818;8.484;2022-11-13T14:02:16;14.60;99.90
4564;DHT22;2294;51.818;8.484;2022-11-13T14:04:45;14.60;99.90
4564;DHT22;2294;51.818;8.484;2022-11-13T14:07:21;14.50;99.90
4564;DHT22;2294;51.818;8.484;2022-11-13T14:09:49;14.20;99.90
4564;DHT22;2294;51.818;8.484;2022-11-13T14:12:19;14.30;99.90
4564;DHT22;2294;51.818;8.484;2022-11-13T14:14:47;14.20;99.90
4564;DHT22;2294;51.818;8.484;2022-11-13T14:17:21;14.30;99.90
4564;DHT22;2294;51.818;8.484;2022-11-13T14:19:49;14.30;99.90
4564;DHT22;2294;51.818;8.484;2022-11-13T14:22:17;14.30;99.90
4564;DHT22;2294;51.818;8.484;2022-11-13T14:24:48;14.40;99.90
4564;DHT22;2294;51.818;8.484;2022-11-13T14:27:20;14.00;99.90
4564;DHT22;2294;51.818;8.484;2022-11-13T14:29:49;14.20;99.90
4564;DHT22;2294;51.818;8.484;2022-11-13T14:32:19;14.10;99.90
4564;DHT22;2294;51.818;8.484;2022-11-13T14:34:48;13.90;99.90
4564;DHT22;2294;51.818;8.484;2022-11-13T14:37:23;13.80;99.90
4564;DHT22;2294;51.818;8.484;2022-11-13T14:39:51;13.70;99.90
4564;DHT22;2294;51.818;8.484;2022-11-13T14:42:26;13.60;99.90
4564;DHT22;2294;51.818;8.484;2022-11-13T14:45:05;13.60;99.90
4564;DHT22;2294;51.818;8.484;2022-11-13T14:47:38;13.50;99.90
4564;DHT22;2294;51.818;8.484;2022-11-13T14:50:18;13.50;99.90
4564;DHT22;2294;51.818;8.484;2022-11-13T14:52:58;13.60;99.90
4564;DHT22;2294;51.818;8.484;2022-11-13T14:55:27;13.90;99.90
4564;DHT22;2294;51.818;8.484;2022-11-13T14:57:56;13.90;99.90
4564;DHT22;2294;51.818;8.484;2022-11-13T15:00:29;13.60;99.90
4564;DHT22;2294;51.818;8.484;2022-11-13T15:02:56;13.50;99.90
4564;DHT22;2294;51.818;8.484;2022-11-13T15:05:23;13.10;99.90
4564;DHT22;2294;51.818;8.484;2022-11-13T15:07:50;12.70;99.90
4564;DHT22;2294;51.818;8.484;2022-11-13T15:10:21;12.80;99.90
4564;DHT22;2294;51.818;8.484;2022-11-13T15:12:48;12.40;99.90
4564;DHT22;2294;51.818;8.484;2022-11-13T15:15:18;12.00;99.90
4564;DHT22;2294;51.818;8.484;2022-11-13T15:17:46;11.80;99.90
4564;DHT22;2294;51.818;8.484;2022-11-13T15:20:16;11.60;99.90
4564;DHT22;2294;51.818;8.484;2022-11-13T15:22:44;11.40;99.90
4564;DHT22;2294;51.818;8.484;2022-11-13T15:25:15;11.20;99.90
4564;DHT22;2294;51.818;8.484;2022-11-13T15:27:42;11.30;99.90
4564;DHT22;2294;51.818;8.484;2022-11-13T15:30:10;11.10;99.90
4564;DHT22;2294;51.818;8.484;2022-11-13T15:32:39;10.90;99.90
4564;DHT22;2294;51.818;8.484;2022-11-13T15:35:11;10.90;99.90
4564;DHT22;2294;51.818;8.484;2022-11-13T15:37:39;11.00;99.90
4564;DHT22;2294;51.818;8.484;2022-11-13T15:40:06;10.80;99.90
4564;DHT22;2294;51.818;8.484;2022-11-13T15:42:34;10.70;99.90
4564;DHT22;2294;51.818;8.484;2022-11-13T15:45:02;10.40;99.90
4564;DHT22;2294;51.818;8.484;2022-11-13T15:47:33;10.50;99.90
4564;DHT22;2294;51.818;8.484;2022-11-13T15:50:02;10.40;99.90
4564;DHT22;2294;51.818;8.484;2022-11-13T15:52:31;10.00;99.90
4564;DHT22;2294;51.818;8.484;2022-11-13T15:55:01;9.80;99.90
4564;DHT22;2294;51.818;8.484;2022-11-13T15:57:29;10.30;99.90
4564;DHT22;2294;51.818;8.484;2022-11-13T15:59:56;10.20;99.90
4564;DHT22;2294;51.818;8.484;2022-11-13T16:02:23;9.70;99.90
4564;DHT22;2294;51.818;8.484;2022-11-13T16:04:49;9.60;99.90
4564;DHT22;2294;51.818;8.484;2022-11-13T16:07:26;9.50;99.90
4564;DHT22;2294;51.818;8.484;2022-11-13T16:09:54;9.70;99.90
4564;DHT22;2294;51.818;8.484;2022-11-13T16:12:21;9.40;99.90
4564;DHT22;2294;51.818;8.484;2022-11-13T16:14:48;9.20;99.90
4564;DHT22;2294;51.818;8.484;2022-11-13T16:17:16;9.10;99.90
4564;DHT22;2294;51.818;8.484;2022-11-13T16:19:45;9.30;99.90
4564;DHT22;2294;51.818;8.484;2022-11-13T16:22:18;8.90;99.90
4564;DHT22;2294;51.818;8.484;2022-11-13T16:24:46;8.70;99.90
4564;DHT22;2294;51.818;8.484;2022-11-13T16:27:16;8.70;99.90
4564;DHT22;2294;51.818;8.484;2022-11-13T16:29:44;8.70;99.90
4564;DHT22;2294;51.818;8.484;2022-11-13T16:32:13;8.90;99.90